KMOX/MOX METAR and TAF weather

Enter ICAO airport designator
Station Type Date Time Source
KMOX METAR 2020/01/11 11:45 UTC NOAA

KMOX 111145Z AUTO 00000KT 10SM CLR M28/M31 A3024 RMK AO2


Station Type Date Time Source
KMOX Decoded METAR 2020/01/11 11:45 UTC NOAA

Morris, Morris Municipal Airport, MN, United States (KMOX) 45-34N 095-58W
Jan 11, 2020 - 06:45 AM EST / 2020.01.11 1145 UTC
Wind: Calm:0
Visibility: 10 mile(s):0
Sky conditions: clear
Temperature: -18 F (-28 C)
Dew Point: -23 F (-31 C)
Relative Humidity: 75%
Pressure (altimeter): 30.24 in. Hg (1024 hPa)
ob: KMOX 111145Z AUTO 00000KT 10SM CLR M28/M31 A3024 RMK AO2
cycle: 12

Station Type Date Time Source
KMOX TAF UTC NOAA

Error!

Example: see airport list